Terminal Aerodrome Forecast
Issued by NWS

Home | Current Version | Previous Version | Text Only | Print | Product List | Glossary On
Versions: 1 2 3 4 5 6 7 8 9 10 11 12 13 14
000
FTUS44 KTSA 252300
TAFRVS
TAF
KRVS 252320Z 2600/2624 32006KT P6SM SCT250
     FM260300 01005KT P6SM SCT250
     FM261100 04008KT P6SM BKN012
     FM261800 05011KT P6SM SCT050 SCT250=

USA.gov is the U.S. government's official web portal to all federal, state and local government web resources and services.